地図

経路データ

SID SEASON NUMBER BASIN SUBBASIN NAME ISO_TIME NATURE LAT LON WMO_WIND WMO_PRES WMO_AGENCY TRACK_TYPE DIST2LAND LANDFALL IFLAG USA_AGENCY USA_ATCF_ID USA_LAT USA_LON USA_RECORD USA_STATUS USA_WIND USA_PRES USA_SSHS USA_R34_NE USA_R34_SE USA_R34_SW USA_R34_NW USA_R50_NE USA_R50_SE USA_R50_SW USA_R50_NW USA_R64_NE USA_R64_SE USA_R64_SW USA_R64_NW USA_POCI USA_ROCI USA_RMW USA_EYE TOKYO_LAT TOKYO_LON TOKYO_GRADE TOKYO_WIND TOKYO_PRES TOKYO_R50_DIR TOKYO_R50_LONG TOKYO_R50_SHORT TOKYO_R30_DIR TOKYO_R30_LONG TOKYO_R30_SHORT TOKYO_LAND CMA_LAT CMA_LON CMA_CAT CMA_WIND CMA_PRES HKO_LAT HKO_LON HKO_CAT HKO_WIND HKO_PRES NEWDELHI_LAT NEWDELHI_LON NEWDELHI_GRADE NEWDELHI_WIND NEWDELHI_PRES NEWDELHI_CI NEWDELHI_DP NEWDELHI_POCI REUNION_LAT REUNION_LON REUNION_TYPE REUNION_WIND REUNION_PRES REUNION_TNUM REUNION_CI REUNION_RMW REUNION_R34_NE REUNION_R34_SE REUNION_R34_SW REUNION_R34_NW REUNION_R50_NE REUNION_R50_SE REUNION_R50_SW REUNION_R50_NW REUNION_R64_NE REUNION_R64_SE REUNION_R64_SW REUNION_R64_NW BOM_LAT BOM_LON BOM_TYPE BOM_WIND BOM_PRES BOM_TNUM BOM_CI BOM_RMW BOM_R34_NE BOM_R34_SE BOM_R34_SW BOM_R34_NW BOM_R50_NE BOM_R50_SE BOM_R50_SW BOM_R50_NW BOM_R64_NE BOM_R64_SE BOM_R64_SW BOM_R64_NW BOM_ROCI BOM_POCI BOM_EYE BOM_POS_METHOD BOM_PRES_METHOD NADI_LAT NADI_LON NADI_CAT NADI_WIND NADI_PRES WELLINGTON_LAT WELLINGTON_LON WELLINGTON_WIND WELLINGTON_PRES DS824_LAT DS824_LON DS824_STAGE DS824_WIND DS824_PRES TD9636_LAT TD9636_LON TD9636_STAGE TD9636_WIND TD9636_PRES TD9635_LAT TD9635_LON TD9635_WIND TD9635_PRES TD9635_ROCI NEUMANN_LAT NEUMANN_LON NEUMANN_CLASS NEUMANN_WIND NEUMANN_PRES MLC_LAT MLC_LON MLC_CLASS MLC_WIND MLC_PRES USA_GUST BOM_GUST BOM_GUST_PER REUNION_GUST REUNION_GUST_PER USA_SEAHGT USA_SEARAD_NE USA_SEARAD_SE USA_SEARAD_SW USA_SEARAD_NW STORM_SPEED STORM_DIR
1997221N03179 1997 64 WP MM YULE 1997-08-09 06:00:00 NR 3.10000 179.000 main 2068 2068 O_____________ jtwc_wp WP151997 3.10000 179.000 20 -1 10 268
1997221N03179 1997 64 WP MM YULE 1997-08-09 09:00:00 NR 3.07757 178.485 main 2093 2093 P_____________ WP151997 3.07757 178.485 20 -1 10 270
1997221N03179 1997 64 WP MM YULE 1997-08-09 12:00:00 NR 3.10000 178.000 main 2119 2119 O_____________ jtwc_wp WP151997 3.10000 178.000 20 -1 9 278
1997221N03179 1997 64 WP MM YULE 1997-08-09 15:00:00 NR 3.20495 177.557 main 2150 2150 P_____________ WP151997 3.20495 177.557 20 -1 9 288
1997221N03179 1997 64 WP MM YULE 1997-08-09 18:00:00 NR 3.40000 177.100 main 2197 2197 O_____________ jtwc_wp WP151997 3.40000 177.100 20 -1 11 294
1997221N03179 1997 64 WP MM YULE 1997-08-09 21:00:00 NR 3.65504 176.542 main 2204 2182 P_____________ WP151997 3.65504 176.542 20 -1 13 299
1997221N03179 1997 64 WP MM YULE 1997-08-10 00:00:00 NR 4.00000 176.000 main 2182 2174 O_____________ jtwc_wp WP151997 4.00000 176.000 20 -1 13 311
1997221N03179 1997 64 WP MM YULE 1997-08-10 03:00:00 NR 4.47239 175.600 main 2186 2184 P_____________ WP151997 4.47239 175.600 20 -1 12 318
1997221N03179 1997 64 WP MM YULE 1997-08-10 06:00:00 NR 4.90000 175.200 main 2184 2160 O_____________ jtwc_wp WP151997 4.90000 175.200 20 -1 11 303
1997221N03179 1997 64 WP MM YULE 1997-08-10 09:00:00 NR 5.06500 174.672 main 2160 2121 P_____________ WP151997 5.06500 174.672 20 -1 11 285
1997221N03179 1997 64 WP MM YULE 1997-08-10 12:00:00 NR 5.20000 174.100 main 2121 2100 O_____________ jtwc_wp WP151997 5.20000 174.100 20 -1 12 291
1997221N03179 1997 64 WP MM YULE 1997-08-10 15:00:00 NR 5.50498 173.542 main 2100 2094 P_____________ WP151997 5.50498 173.542 20 -1 13 303
1997221N03179 1997 64 WP MM YULE 1997-08-10 18:00:00 NR 5.90000 173.000 main 2097 2090 O_____________ jtwc_wp WP151997 5.90000 173.000 20 -1 14 309
1997221N03179 1997 64 WP MM YULE 1997-08-10 21:00:00 NR 6.34995 172.485 main 2097 2097 P_____________ WP151997 6.34995 172.485 20 -1 13 312
1997221N03179 1997 64 WP MM YULE 1997-08-11 00:00:00 NR 6.80000 172.000 main 2108 2107 O_____________ jtwc_wp WP151997 6.80000 172.000 20 -1 13 312
1997221N03179 1997 64 WP MM YULE 1997-08-11 03:00:00 NR 7.22501 171.505 main 2113 2113 P_____________ WP151997 7.22501 171.505 20 -1 11 308
1997221N03179 1997 64 WP MM YULE 1997-08-11 06:00:00 NR 7.50000 171.100 main 2116 2104 O_____________ jtwc_wp WP151997 7.50000 171.100 20 -1 7 294
1997221N03179 1997 64 WP MM YULE 1997-08-11 09:00:00 NR 7.51742 170.855 main 2104 2083 P_____________ WP151997 7.51742 170.855 20 -1 4 256
1997221N03179 1997 64 WP MM YULE 1997-08-11 12:00:00 NR 7.40000 170.700 main 2083 2068 O_____________ jtwc_wp WP151997 7.40000 170.700 20 -1 4 235
1997221N03179 1997 64 WP MM YULE 1997-08-11 15:00:00 NR 7.30748 170.550 main 2068 2047 P_____________ WP151997 7.30748 170.550 20 -1 4 236
1997221N03179 1997 64 WP MM YULE 1997-08-11 18:00:00 NR 7.20000 170.400 main 2047 2016 O_____________ jtwc_wp WP151997 7.20000 170.400 20 -1 5 227
1997221N03179 1997 64 WP MM YULE 1997-08-11 21:00:00 NR 7.00249 170.215 main 2016 2001 P_____________ WP151997 7.00249 170.215 20 -1 4 243
1997221N03179 1997 64 WP MM YULE 1997-08-12 00:00:00 NR 7.00000 170.000 main 2004 2004 O_____________ jtwc_wp WP151997 7.00000 170.000 20 -1 7 314
1997221N03179 1997 64 WP MM YULE 1997-08-12 03:00:00 NR 7.49005 169.705 main 2036 2036 P_____________ WP151997 7.49005 169.705 20 -1 12 336
1997221N03179 1997 64 WP MM YULE 1997-08-12 06:00:00 NR 8.10000 169.500 main 2085 2085 O_____________ jtwc_wp WP151997 8.10000 169.500 20 -1 10 349
1997221N03179 1997 64 WP MM YULE 1997-08-12 09:00:00 NR 8.51241 169.510 main 2125 2125 P_____________ WP151997 8.51241 169.510 20 -1 6 18
1997221N03179 1997 64 WP MM YULE 1997-08-12 12:00:00 NR 8.70000 169.700 main 2155 2155 O_____________ jtwc_wp WP151997 8.70000 169.700 20 -1 5 83
1997221N03179 1997 64 WP MM YULE 1997-08-12 15:00:00 NR 8.57508 170.028 main 2160 2147 P_____________ WP151997 8.57508 170.028 20 -1 8 120
1997221N03179 1997 64 WP MM YULE 1997-08-12 18:00:00 NR 8.30000 170.400 main 2152 2144 O_____________ jtwc_wp WP151997 8.30000 170.400 20 -1 8 127
1997221N03179 1997 64 WP MM YULE 1997-08-12 21:00:00 NR 8.09245 170.665 main 2150 2136 P_____________ WP151997 8.09245 170.665 20 -1 6 129
1997221N03179 1997 64 WP MM YULE 1997-08-13 00:00:00 NR 7.90000 170.900 main 2142 2139 O_____________ jtwc_wp WP151997 7.90000 170.900 20 -1 6 121
1997221N03179 1997 64 WP MM YULE 1997-08-13 03:00:00 NR 7.76503 171.210 main 2150 2144 P_____________ WP151997 7.76503 171.210 20 -1 6 121
1997221N03179 1997 64 WP MM YULE 1997-08-13 06:00:00 NR 7.60000 171.400 main 2144 2110 O_____________ jtwc_wp WP151997 7.60000 171.400 20 -1 5 164
1997221N03179 1997 64 WP MM YULE 1997-08-13 09:00:00 NR 7.29995 171.340 main 2110 2069 P_____________ WP151997 7.29995 171.340 20 -1 7 206
1997221N03179 1997 64 WP MM YULE 1997-08-13 12:00:00 NR 7.00000 171.100 main 2069 2038 O_____________ jtwc_wp WP151997 7.00000 171.100 20 -1 7 226
1997221N03179 1997 64 WP MM YULE 1997-08-13 15:00:00 NR 6.81237 170.833 main 2032 1999 P_____________ WP151997 6.81237 170.833 20 -1 8 247
1997221N03179 1997 64 WP MM YULE 1997-08-13 18:00:00 NR 6.70000 170.400 main 1999 1955 O_____________ jtwc_wp WP151997 6.70000 170.400 20 -1 11 257
1997221N03179 1997 64 WP MM YULE 1997-08-13 21:00:00 NR 6.56770 169.722 main 1949 1911 P_____________ WP151997 6.56770 169.722 20 -1 14 266
1997221N03179 1997 64 WP MM YULE 1997-08-14 00:00:00 NR 6.60000 169.000 main 1911 1905 O_____________ jtwc_wp WP151997 6.60000 169.000 20 -1 13 289
1997221N03179 1997 64 WP MM YULE 1997-08-14 03:00:00 NR 6.98482 168.478 main 1925 1920 P_____________ WP151997 6.98482 168.478 20 -1 13 309
1997221N03179 1997 64 WP MM YULE 1997-08-14 06:00:00 NR 7.40000 168.000 main 1942 1930 O_____________ jtwc_wp WP151997 7.40000 168.000 20 -1 11 299
1997221N03179 1997 64 WP MM YULE 1997-08-14 09:00:00 NR 7.53242 167.465 main 1930 1905 P_____________ WP151997 7.53242 167.465 20 -1 11 275
1997221N03179 1997 64 WP MM YULE 1997-08-14 12:00:00 NR 7.50000 166.900 main 1905 1876 O_____________ jtwc_wp WP151997 7.50000 166.900 20 -1 11 263
1997221N03179 1997 64 WP MM YULE 1997-08-14 15:00:00 NR 7.38731 166.337 main 1872 1830 P_____________ WP151997 7.38731 166.337 20 -1 12 256
1997221N03179 1997 64 WP MM YULE 1997-08-14 18:00:00 NR 7.20000 165.700 main 1830 1774 O_____________ jtwc_wp WP151997 7.20000 165.700 20 -1 15 253
1997221N03179 1997 64 WP MM YULE 1997-08-14 21:00:00 NR 6.95526 164.870 main 1774 1711 P_____________ WP151997 6.95526 164.870 22 -1 16 256
1997221N03179 1997 64 WP MM YULE 1997-08-15 00:00:00 NR 6.80000 164.100 main 1711 1680 O_____________ jtwc_wp WP151997 6.80000 164.100 25 -1 13 266
1997221N03179 1997 64 WP MM YULE 1997-08-15 03:00:00 NR 6.87485 163.580 main 1689 1676 P_____________ WP151997 6.87485 163.580 25 -1 9 291
1997221N03179 1997 64 WP MM YULE 1997-08-15 06:00:00 NR 7.10000 163.300 main 1689 1689 O_____________ jtwc_wp WP151997 7.10000 163.300 25 -1 6 326
1997221N03179 1997 64 WP MM YULE 1997-08-15 09:00:00 NR 7.39993 163.217 main 1712 1712 P_____________ WP151997 7.39993 163.217 25 -1 6 1
1997221N03179 1997 64 WP MM YULE 1997-08-15 12:00:00 NR 7.70000 163.300 main 1746 1746 O_____________ jtwc_wp WP151997 7.70000 163.300 25 -1 5 24
1997221N03179 1997 64 WP MM YULE 1997-08-15 15:00:00 NR 7.87251 163.428 main 1770 1770 P_____________ WP151997 7.87251 163.428 25 -1 4 44
1997221N03179 1997 64 WP MM YULE 1997-08-15 18:00:00 NR 8.00000 163.600 main 1792 1792 O_____________ jtwc_wp WP151997 8.00000 163.600 25 -1 4 49
1997221N03179 1997 64 WP MM YULE 1997-08-15 21:00:00 NR 8.15751 163.765 main 1823 1823 P_____________ WP151997 8.15751 163.765 25 -1 4 44
1997221N03179 1997 64 WP MM YULE 1997-08-16 00:00:00 NR 8.30000 163.900 main 1838 1838 O_____________ jtwc_wp WP151997 8.30000 163.900 25 -1 3 39
1997221N03179 1997 64 WP MM YULE 1997-08-16 03:00:00 NR 8.39999 163.965 main 1853 1853 P_____________ WP151997 8.39999 163.965 25 -1 3 8
1997221N03179 1997 64 WP MM YULE 1997-08-16 06:00:00 TS 8.56000 163.940 1002 tokyo main 1865 1865 OO____________ jtwc_wp WP151997 8.50000 164.000 25 -1 8.80000 163.700 2 1002 0 0 0 3 0
1997221N03179 1997 64 WP MM YULE 1997-08-16 09:00:00 TS 8.73915 163.973 main 1881 1881 PP____________ WP151997 8.59748 164.020 25 -1 9.02249 163.878 2 1002 0 0 5 19
1997221N03179 1997 64 WP MM YULE 1997-08-16 12:00:00 TS 9.01429 164.100 1002 tokyo main 1913 1913 OO____________ jtwc_wp WP151997 8.80000 164.100 25 -1 9.30000 164.100 2 1002 0 0 0 8 29
1997221N03179 1997 64 WP MM YULE 1997-08-16 15:00:00 TS 9.43753 164.356 main 1968 1968 PP____________ WP151997 9.20504 164.320 27 -1 9.67003 164.392 2 1002 0 0 11 31
1997221N03179 1997 64 WP MM YULE 1997-08-16 18:00:00 TS 9.94444 164.656 1002 tokyo main 2032 2032 OO_O__________ jtwc_wp WP151997 9.70000 164.600 30 -1 10.1000 164.700 2 1002 0 0 0 10.3000 164.700 TD 30 1002 11 29
1997221N03179 1997 64 WP MM YULE 1997-08-16 21:00:00 TS 10.4265 164.912 main 2089 2089 PP_P__________ WP151997 10.1724 164.835 30 -1 10.5500 164.965 2 1002 0 0 10.6876 164.960 TD 30 1002 11 28
1997221N03179 1997 64 WP MM YULE 1997-08-17 00:00:00 TS 10.8818 165.164 1002 tokyo main 2153 2153 OO_O__________ jtwc_wp WP151997 10.6000 165.100 30 -1 11.0000 165.200 2 1002 0 0 0 11.1000 165.200 TD 30 1002 10 30
1997221N03179 1997 64 WP MM YULE 1997-08-17 03:00:00 TS 11.2933 165.422 main 2201 2201 PP_P__________ WP151997 10.9225 165.450 32 -1 11.4075 165.408 2 1002 0 0 11.5500 165.408 TD 30 1002 9 32
1997221N03179 1997 64 WP MM YULE 1997-08-17 06:00:00 TS 11.6667 165.667 1002 tokyo main 2257 2257 OO_O__________ jtwc_wp WP151997 11.2000 165.800 35 0 11.8000 165.600 2 1002 0 0 0 12.0000 165.600 TD 30 1002 9 32
1997221N03179 1997 64 WP MM YULE 1997-08-17 09:00:00 TS 12.0383 165.891 main 2296 2296 PP_P__________ WP151997 11.5074 166.050 35 0 12.2000 165.815 2 1002 0 0 12.4075 165.808 TD 30 1002 9 30
1997221N03179 1997 64 WP MM YULE 1997-08-17 12:00:00 TS 12.4000 166.100 1002 tokyo main 2345 2345 OO_O__________ jtwc_wp WP151997 11.8000 166.300 35 0 12.6000 166.000 2 1002 0 0 0 12.8000 166.000 TD 30 1002 8 30
1997221N03179 1997 64 WP MM YULE 1997-08-17 15:00:00 TS 12.7425 166.308 main 2384 2384 PP_P__________ WP151997 12.0425 166.643 35 0 12.9850 166.123 2 1002 0 0 13.2000 166.158 TD 30 1002 8 29
1997221N03179 1997 64 WP MM YULE 1997-08-17 18:00:00 TS 13.1000 166.500 1002 tokyo main 2433 2433 OO_O__________ jtwc_wp WP151997 12.3000 167.000 35 0 13.4000 166.200 2 1002 0 0 0 13.6000 166.300 TD 30 1002 9 25
1997221N03179 1997 64 WP MM YULE 1997-08-17 21:00:00 TS 13.5117 166.679 main 2481 2481 PP_P__________ WP151997 12.6275 167.323 35 0 13.9075 166.265 2 1002 0 0 14.0000 166.450 TD 30 1002 9 21
1997221N03179 1997 64 WP MM YULE 1997-08-18 00:00:00 TS 13.9333 166.833 1002 tokyo main 2523 2523 OO_O__________ jtwc_wp WP151997 13.0000 167.600 35 0 14.4000 166.300 2 1002 0 0 0 14.4000 166.600 TD 30 1002 9 19
1997221N03179 1997 64 WP MM YULE 1997-08-18 03:00:00 TS 14.3216 166.972 main 2571 2571 PP_P__________ WP151997 13.3999 167.800 35 0 14.7499 166.352 2 1002 0 0 14.8150 166.765 TD 30 1002 8 16
1997221N03179 1997 64 WP MM YULE 1997-08-18 06:00:00 TS 14.7000 167.067 1002 tokyo main 2613 2613 OO_O__________ jtwc_wp WP151997 13.8000 168.000 35 0 15.1000 166.300 2 1002 0 0 0 15.2000 166.900 TD 30 1002 8 11
1997221N03179 1997 64 WP MM YULE 1997-08-18 09:00:00 TS 15.0959 167.126 main 2648 2648 PP_P__________ WP151997 14.1201 168.367 32 -1 15.6376 166.045 2 1002 0 0 15.5300 166.965 TD 30 1002 8 2
1997221N03179 1997 64 WP MM YULE 1997-08-18 12:00:00 TS 15.4667 167.100 1002 tokyo main 2683 2683 OO_O__________ jtwc_wp WP151997 14.5000 168.600 30 -1 16.1000 165.700 2 1002 0 0 0 15.8000 167.000 TD 30 1002 7 346
1997221N03179 1997 64 WP MM YULE 1997-08-18 15:00:00 TS 15.8067 166.943 main 2696 2696 PP_P__________ WP151997 15.1074 168.456 32 -1 16.3051 165.332 2 1002 0 0 16.0075 167.043 TD 30 1002 7 332
1997221N03179 1997 64 WP MM YULE 1997-08-18 18:00:00 TS 16.0667 166.767 1002 tokyo main 2715 2709 OO_O__________ jtwc_wp WP151997 15.7000 168.100 35 0 16.3000 165.100 2 1002 0 0 0 16.2000 167.100 TD 30 1002 5 334
1997221N03179 1997 64 WP MM YULE 1997-08-18 21:00:00 TS 16.2324 166.724 main 2717 2711 PP_P__________ WP151997 16.0302 167.692 35 0 16.1446 165.107 2 1002 0 0 16.4425 167.200 TD 30 1002 2 315
1997221N03179 1997 64 WP MM YULE 1997-08-19 00:00:00 TS 16.2071 166.621 1002 tokyo main 2711 2711 OOOO__________ jtwc_wp WP151997 16.3000 167.300 35 0 15.9000 165.400 2 1002 0 0 0 15.0000 165.400 1 23 1002 16.7000 167.300 TD 30 1002 1 224
1997221N03179 1997 64 WP MM YULE 1997-08-19 03:00:00 TS 16.1691 166.668 main 2717 2717 PPPP__________ WP151997 16.6849 167.047 37 0 15.6323 165.931 2 1001 0 0 14.6344 166.002 1 26 1001 16.9575 167.358 TD 30 1002 3 91
1997221N03179 1997 64 WP MM YULE 1997-08-19 06:00:00 TS 16.2000 166.960 1000 tokyo main 2737 2737 OOOO__________ jtwc_wp WP151997 17.1000 166.900 40 0 15.5000 166.700 2 1000 0 0 0 14.6000 166.800 1 29 1000 17.2000 167.400 TD 30 1002 8 73
1997221N03179 1997 64 WP MM YULE 1997-08-19 09:00:00 TS 16.3980 167.439 main 2781 2781 PPPP__________ WP151997 17.5149 166.790 42 0 15.5635 167.680 2 999 0 0 15.1210 167.834 1 29 999 17.3925 167.450 TD 32 1000 11 52
1997221N03179 1997 64 WP MM YULE 1997-08-19 12:00:00 TS 16.8750 167.850 35 998 tokyo main 2858 2858 OOOO__________ jtwc_wp WP151997 17.9000 166.800 45 0 16.0000 168.600 3 35 998 0 9 90 90 0 16.0000 168.500 1 29 998 17.6000 167.500 TS 35 998 12 25
1997221N03179 1997 64 WP MM YULE 1997-08-19 15:00:00 TS 17.5262 167.981 main 2917 2917 PPPP__________ WP151997 18.2151 166.992 47 0 16.9516 169.324 3 37 996 0 9 105 105 17.0531 168.059 1 33 996 17.8850 167.550 TS 37 996 13 3
1997221N03179 1997 64 WP MM YULE 1997-08-19 18:00:00 TS 18.2000 167.925 40 994 tokyo main 2973 2973 OOOO__________ jtwc_wp WP151997 18.5000 167.200 50 0 18.1000 169.500 3 40 994 0 9 120 120 0 18.0000 167.400 2 38 995 18.2000 167.600 TS 40 994 12 350
1997221N03179 1997 64 WP MM YULE 1997-08-19 21:00:00 TS 18.7342 167.751 main 3011 3011 PPPP__________ WP151997 18.7999 167.208 52 0 19.1896 168.695 3 42 992 0 9 135 135 18.4473 167.451 2 38 995 18.5000 167.650 TS 42 992 10 340
1997221N03179 1997 64 WP MM YULE 1997-08-20 00:00:00 TS 19.1250 167.575 45 990 tokyo main 3034 3034 OOOO__________ jtwc_wp WP151997 19.1000 167.200 55 0 19.9000 167.700 3 45 990 0 9 150 150 0 18.7000 167.700 2 38 995 18.8000 167.700 TS 45 990 6 343
1997221N03179 1997 64 WP MM YULE 1997-08-20 03:00:00 TS 19.3291 167.563 main 3053 3053 PPPP__________ WP151997 19.4075 167.335 55 0 19.7815 167.346 3 45 990 0 9 150 150 19.0425 167.822 2 41 992 19.0850 167.750 TS 45 990 4 11
1997221N03179 1997 64 WP MM YULE 1997-08-20 06:00:00 TS 19.5000 167.650 45 990 tokyo main 3077 3071 OOOO__________ jtwc_wp WP151997 19.7000 167.500 55 0 19.5000 167.400 3 45 990 0 9 150 150 0 19.4000 167.900 2 44 990 19.4000 167.800 TS 45 990 5 24
1997221N03179 1997 64 WP MM YULE 1997-08-20 09:00:00 TS 19.8276 167.798 main 3110 3110 PPPP__________ WP151997 19.9500 167.600 55 0 19.7606 167.842 3 47 987 0 9 165 165 19.8150 167.900 2 44 990 19.7850 167.850 TS 47 987 8 22
1997221N03179 1997 64 WP MM YULE 1997-08-20 12:00:00 TS 20.2000 167.950 50 985 tokyo main 3154 3133 OOOO__________ jtwc_wp WP151997 20.2000 167.700 55 0 20.2000 168.300 4 50 985 0 9 180 180 0 20.2000 167.900 2 44 990 20.2000 167.900 STS 50 985 7 17
1997221N03179 1997 64 WP MM YULE 1997-08-20 15:00:00 TS 20.5075 168.019 main 3133 3106 PPPP__________ WP151997 20.4550 167.865 55 0 20.5774 168.268 4 50 985 0 9 180 180 20.4125 167.993 2 46 987 20.5850 167.950 STS 50 985 7 8
1997221N03179 1997 64 WP MM YULE 1997-08-20 18:00:00 TS 20.8750 168.050 50 985 tokyo main 3114 3080 OOOO__________ jtwc_wp WP151997 20.8000 168.000 55 0 21.0000 168.100 4 50 985 0 9 180 180 0 20.7000 168.100 3 48 985 21.0000 168.000 STS 50 985 9 2
1997221N03179 1997 64 WP MM YULE 1997-08-20 21:00:00 TS 21.3931 168.070 main 3080 3046 PPPP__________ WP151997 21.3125 168.008 55 0 21.4775 168.070 4 52 982 0 9 265 190 21.3050 168.158 3 53 982 21.4775 168.043 STS 52 982 11 2
1997221N03179 1997 64 WP MM YULE 1997-08-21 00:00:00 TS 21.9750 168.100 55 980 tokyo main 3040 3013 OOOO__________ jtwc_wp WP151997 21.9000 168.000 55 0 22.0000 168.100 4 55 980 9 50 50 3 350 200 0 22.0000 168.200 3 58 980 22.0000 168.100 STS 55 980 12 4
1997221N03179 1997 64 WP MM YULE 1997-08-21 03:00:00 TS 22.5344 168.167 main 3015 2983 PPPP__________ WP151997 22.4575 168.070 55 0 22.5500 168.177 4 55 980 9 50 50 3 350 200 22.5800 168.235 3 58 980 22.5500 168.185 STS 55 980 11 8
1997221N03179 1997 64 WP MM YULE 1997-08-21 06:00:00 TS 23.0750 168.275 55 980 tokyo main 2985 2969 OOOO__________ jtwc_wp WP151997 23.0000 168.200 55 0 23.1000 168.300 4 55 980 9 50 50 3 350 200 0 23.1000 168.300 3 58 980 23.1000 168.300 STS 55 980 10 13
1997221N03179 1997 64 WP MM YULE 1997-08-21 09:00:00 TS 23.5531 168.413 main 2963 2943 PPPP__________ WP151997 23.5075 168.385 55 0 23.5775 168.428 4 55 980 9 50 50 3 350 200 23.5424 168.413 3 56 980 23.5850 168.428 STS 55 980 10 17
1997221N03179 1997 64 WP MM YULE 1997-08-21 12:00:00 TS 24.0500 168.600 55 980 tokyo main 2933 2905 OOOO__________ jtwc_wp WP151997 24.0000 168.600 55 0 24.1000 168.600 4 55 980 9 50 50 3 350 200 0 24.0000 168.600 3 54 980 24.1000 168.600 STS 55 980 11 19
1997221N03179 1997 64 WP MM YULE 1997-08-21 15:00:00 TS 24.5836 168.806 main 2896 2855 PPPP__________ WP151997 24.4023 168.764 55 0 24.7398 168.798 4 55 980 9 50 50 3 375 225 24.5100 168.863 3 51 982 24.6823 168.799 STS 55 980 13 20
1997221N03179 1997 64 WP MM YULE 1997-08-21 18:00:00 TS 25.2750 169.100 55 980 tokyo main 2845 2782 OOOO__________ jtwc_wp WP151997 25.0000 169.000 55 0 25.5000 169.100 4 55 980 9 50 50 3 400 250 0 25.2000 169.200 3 48 985 25.4000 169.100 STS 55 980 18 21
1997221N03179 1997 64 WP MM YULE 1997-08-21 21:00:00 TS 26.2182 169.518 main 2782 2716 PPPP__________ WP151997 26.0602 169.404 55 0 26.3551 169.555 4 55 980 9 50 50 3 400 250 26.1598 169.556 3 48 985 26.2976 169.555 STS 52 982 22 22
1997221N03179 1997 64 WP MM YULE 1997-08-22 00:00:00 TS 27.3000 170.025 55 980 tokyo main 2707 2644 OOOO__________ jtwc_wp WP151997 27.3000 169.900 55 0 27.3000 170.100 4 55 980 9 50 50 2 400 250 0 27.3000 170.000 3 48 985 27.3000 170.100 STS 50 985 23 24
1997221N03179 1997 64 WP MM YULE 1997-08-22 03:00:00 TS 28.3544 170.566 main 2641 2582 PPPP__________ WP151997 28.3775 170.401 55 0 28.2848 170.636 4 55 980 9 50 50 2 400 250 28.5004 170.591 3 48 985 28.2548 170.637 STS 50 985 24 24
1997221N03179 1997 64 WP MM YULE 1997-08-22 06:00:00 TS 29.4500 171.125 55 980 tokyo main 2573 2524 OOOO__________ jtwc_wp WP151997 29.5000 170.900 55 0 29.3000 171.200 4 55 980 9 50 50 2 400 250 0 29.7000 171.200 3 48 985 29.3000 171.200 STS 50 985 24 24
1997221N03179 1997 64 WP MM YULE 1997-08-22 09:00:00 TS 30.5420 171.683 main 2524 2450 PPPP__________ WP151997 30.7328 171.423 55 0 30.1877 171.810 4 52 982 9 2 425 250 30.7721 171.682 3 48 985 30.4753 171.815 STS 50 985 25 21
1997221N03179 1997 64 WP MM YULE 1997-08-22 12:00:00 TS 31.7500 172.175 50 985 tokyo main 2447 2349 OOOO__________ jtwc_wp WP151997 32.1000 171.800 55 0 31.3000 172.400 4 50 985 0 1 450 250 0 31.8000 172.100 3 48 985 31.8000 172.400 STS 50 985 27 18
1997221N03179 1997 64 WP MM YULE 1997-08-22 15:00:00 TS 33.0742 172.633 main 2340 2207 PPPP__________ WP151997 33.5822 171.920 55 0 32.8783 173.035 4 47 987 0 1 450 250 32.6184 172.581 3 46 987 33.2177 172.995 STS 50 985 30 11
1997221N03179 1997 64 WP MM YULE 1997-08-22 18:00:00 TS 34.6667 172.820 45 990 tokyo main 2198 2015 OOOO__________ jtwc_wp WP151997 35.2000 171.800 55 0 34.8000 173.400 3 45 990 0 1 450 250 0 33.9000 172.900 2 44 990 34.8000 173.300 STS 50 985 37 1
1997221N03179 1997 64 WP MM YULE 1997-08-22 21:00:00 TS 36.7773 172.741 main 2001 1799 PPPP__________ WP151997 36.9412 171.603 55 0 37.0286 173.363 3 45 991 0 1 475 275 36.4742 173.090 2 44 990 36.5531 173.074 STS 47 987 43 353
1997221N03179 1997 64 WP MM YULE 1997-08-23 00:00:00 TS 38.9231 172.192 45 992 tokyo main 1790 1596 OOOO__________ jtwc_wp WP151997 38.7000 171.100 55 0 39.1000 172.700 3 45 992 0 1 500 300 0 39.1000 172.700 2 44 990 38.4000 172.500 TS 45 990 40 339
1997221N03179 1997 64 WP MM YULE 1997-08-23 03:00:00 TS 40.4739 170.888 main 1582 1408 PPP___________ WP151997 40.3839 170.146 57 0 40.4850 171.240 3 988 0 1 40.5527 171.279 2 44 987 TS 35 321
1997221N03179 1997 64 WP MM YULE 1997-08-23 06:00:00 MX 41.6333 169.333 984 tokyo main 1402 1246 OOO___________ jtwc_wp WP151997 41.9000 169.000 60 0 41.5000 169.500 6 984 0 0 0 41.5000 169.500 2 44 985 31 317
1997221N03179 1997 64 WP MM YULE 1997-08-23 09:00:00 MX 42.7359 168.055 main 1246 1110 PPP___________ WP151997 43.2346 167.974 62 0 42.4865 168.096 6 982 0 0 42.4865 168.096 2 44 985 27 321
1997221N03179 1997 64 WP MM YULE 1997-08-23 12:00:00 MX 43.7273 167.036 980 tokyo main 1104 998 OOO___________ jtwc_wp WP151997 44.3000 167.100 65 1 43.4000 167.000 6 980 0 0 0 43.4000 167.000 2 44 985 23 327
1997221N03179 1997 64 WP MM YULE 1997-08-23 15:00:00 MX 44.6420 166.353 main 998 903 PPP___________ WP151997 45.0811 166.476 65 1 44.3554 166.261 6 980 0 0 44.3374 166.290 2 44 985 19 335
1997221N03179 1997 64 WP MM YULE 1997-08-23 18:00:00 MX 45.4778 165.889 980 tokyo main 894 806 OOO___________ jtwc_wp WP151997 45.7000 166.000 65 1 45.3000 165.800 6 980 0 0 0 45.3000 165.800 2 44 985 18 339
1997221N03179 1997 64 WP MM YULE 1997-08-23 21:00:00 ET 46.3007 165.461 main 806 727 PP____________ WP151997 46.3571 165.498 65 1 46.2443 165.424 6 980 0 0 2 17 340
1997221N03179 1997 64 WP MM YULE 1997-08-24 00:00:00 ET 47.0500 165.050 980 tokyo main 719 640 OO____________ jtwc_wp WP151997 47.0000 165.000 65 1 47.1000 165.100 6 980 0 0 0 16 336
1997221N03179 1997 64 WP MM YULE 1997-08-24 03:00:00 ET 47.7603 164.518 main 632 573 PP____________ WP151997 47.7178 164.414 65 1 47.8028 164.621 6 980 0 0 15 333
1997221N03179 1997 64 WP MM YULE 1997-08-24 06:00:00 ET 48.3500 164.050 980 tokyo main 565 520 OO____________ jtwc_wp WP151997 48.3000 163.900 65 1 48.4000 164.200 6 980 0 0 0 11 336
1997221N03179 1997 64 WP MM YULE 1997-08-24 09:00:00 ET 48.7880 163.836 main 520 494 PP____________ WP151997 48.5595 163.595 65 1 49.0165 164.077 6 981 0 0 8 341
1997221N03179 1997 64 WP MM YULE 1997-08-24 12:00:00 ET 49.1000 163.650 982 tokyo main 494 452 OO____________ jtwc_wp WP151997 48.7000 163.400 65 1 49.5000 163.900 6 982 0 0 0 7 323
1997221N03179 1997 64 WP MM YULE 1997-08-24 15:00:00 ET 49.3559 163.177 main 445 415 PP____________ WP151997 48.9500 163.155 65 1 49.7617 163.198 6 983 0 0 7 309
1997221N03179 1997 64 WP MM YULE 1997-08-24 18:00:00 ET 49.5500 162.800 984 tokyo main 409 397 OO____________ jtwc_wp WP151997 49.2000 163.000 65 1 49.9000 162.600 6 984 0 0 0 5 326
1997221N03179 1997 64 WP MM YULE 1997-08-24 21:00:00 ET 49.7429 162.778 main 402 395 PP____________ WP151997 49.4299 162.982 65 1 50.0559 162.575 6 986 0 0 4 25
1997221N03179 1997 64 WP MM YULE 1997-08-25 00:00:00 ET 49.9000 163.050 988 tokyo main 407 404 OO____________ jtwc_wp WP151997 49.6000 163.100 65 1 50.2000 163.000 6 988 0 0 0 6 59
1997221N03179 1997 64 WP MM YULE 1997-08-25 03:00:00 ET 50.0267 163.521 main 415 410 PP____________ WP151997 49.6871 163.267 65 1 50.3664 163.774 6 990 0 0 7 74
1997221N03179 1997 64 WP MM YULE 1997-08-25 06:00:00 ET 50.1000 164.150 992 tokyo main 435 431 OO____________ jtwc_wp WP151997 49.7000 163.600 65 1 50.5000 164.700 6 992 0 0 0 8 87
1997221N03179 1997 64 WP MM YULE 1997-08-25 09:00:00 ET 50.0658 164.777 main 463 463 PP____________ WP151997 49.5976 164.136 65 1 50.5340 165.417 6 993 0 0 8 90
1997221N03179 1997 64 WP MM YULE 1997-08-25 12:00:00 ET 50.1000 165.450 994 tokyo main 498 498 OO____________ jtwc_wp WP151997 49.6000 164.800 65 1 50.6000 166.100 6 994 0 0 0 10 70
1997221N03179 1997 64 WP MM YULE 1997-08-25 15:00:00 ET 50.3877 166.184 main 513 512 PP____________ WP151997 49.9402 165.505 65 1 50.8351 166.863 6 995 0 0 11 55
1997221N03179 1997 64 WP MM YULE 1997-08-25 18:00:00 ET 50.7500 166.900 996 tokyo main 528 528 OO____________ jtwc_wp WP151997 50.4000 166.200 65 1 51.1000 167.600 6 996 0 0 0 11 51
1997221N03179 1997 64 WP MM YULE 1997-08-25 21:00:00 ET 51.0668 167.501 main 537 537 PP____________ WP151997 50.8014 166.743 62 0 51.3323 168.259 6 996 0 0 9 55
1997221N03179 1997 64 WP MM YULE 1997-08-26 00:00:00 ET 51.2500 168.050 996 tokyo main 548 548 OO____________ jtwc_wp WP151997 51.1000 167.300 60 0 51.4000 168.800 6 996 0 0 0 7 82
1997221N03179 1997 64 WP MM YULE 1997-08-26 03:00:00 ET 51.1697 168.621 main 581 581 PP____________ WP151997 51.1947 168.007 55 0 51.1447 169.235 6 996 0 0 7 110
1997221N03179 1997 64 WP MM YULE 1997-08-26 06:00:00 ET 51.0000 169.150 996 tokyo main 626 621 OO____________ jtwc_wp WP151997 51.2000 168.800 50 0 50.8000 169.500 6 996 0 0 0 6 110
1997221N03179 1997 64 WP MM YULE 1997-08-26 09:00:00 ET 50.9496 169.596 main 654 654 PP____________ WP151997 51.2569 169.620 47 0 50.6423 169.571 6 997 0 0 6 100
1997221N03179 1997 64 WP MM YULE 1997-08-26 12:00:00 ET 50.9000 170.050 998 tokyo main 680 680 OO____________ jtwc_wp WP151997 51.3000 170.500 45 0 50.5000 169.600 6 998 0 0 0 7 106
1997221N03179 1997 64 WP MM YULE 1997-08-26 15:00:00 ET 50.7638 170.654 main 719 719 PP____________ WP151997 51.2550 171.453 42 0 50.2726 169.854 6 998 0 0 7 119
1997221N03179 1997 64 WP MM YULE 1997-08-26 18:00:00 ET 50.5571 171.029 998 tokyo main 749 749 OO____________ jtwc_wp WP151997 51.3000 172.400 40 0 50.0000 170.000 6 998 0 0 0 5 159
1997221N03179 1997 64 WP MM YULE 1997-08-26 21:00:00 ET 50.3313 170.924 main 766 761 PP____________ WP151997 51.5782 173.270 37 0 49.7078 169.751 6 998 0 0 8 215
1997221N03179 1997 64 WP MM YULE 1997-08-27 00:00:00 ET 49.9200 170.340 998 tokyo main 767 763 OO____________ jtwc_wp WP151997 52.0000 174.100 35 0 49.4000 169.400 6 998 0 0 0 17 223
1997221N03179 1997 64 WP MM YULE 1997-08-27 03:00:00 ET 49.0996 169.129 main 765 765 _P____________ WP151997 -1 49.0996 169.129 6 999 0 0 14 216
1997221N03179 1997 64 WP MM YULE 1997-08-27 06:00:00 ET 48.8000 169.100 1000 tokyo main 787 787 _O____________ -1 48.8000 169.100 6 1000 0 0 0 6 159
1997221N03179 1997 64 WP MM YULE 1997-08-27 09:00:00 ET 48.5075 169.473 main 831 831 _P____________ -1 48.5075 169.473 6 1001 0 0 9 132
1997221N03179 1997 64 WP MM YULE 1997-08-27 12:00:00 ET 48.2000 170.100 1002 tokyo main 886 886 _O____________ -1 48.2000 170.100 6 1002 0 0 0 11 129
1997221N03179 1997 64 WP MM YULE 1997-08-27 15:00:00 ET 47.8120 170.742 main 948 948 _P____________ -1 47.8120 170.742 6 1003 0 0 12 127
1997221N03179 1997 64 WP MM YULE 1997-08-27 18:00:00 ET 47.5000 171.500 1004 tokyo main 1015 1015 _O____________ -1 47.5000 171.500 6 1004 0 0 0 11 113
1997221N03179 1997 64 WP MM YULE 1997-08-27 21:00:00 ET 47.3576 172.289 main 1067 1067 _P____________ -1 47.3576 172.289 6 1004 0 0 12 95
1997221N03179 1997 64 WP MM YULE 1997-08-28 00:00:00 ET 47.4000 173.300 1004 tokyo main 1121 1121 _O____________ -1 47.4000 173.300 6 1004 0 0 0 16 84
1997221N03179 1997 64 WP MM YULE 1997-08-28 03:00:00 ET 47.5236 174.672 main 1181 1181 _P____________ -1 47.5236 174.672 6 1004 0 0 20 76
1997221N03179 1997 64 WP MM YULE 1997-08-28 06:00:00 ET 47.9000 176.200 1004 tokyo main 1185 1056 _O____________ -1 47.9000 176.200 6 1004 0 0 0 23 61
1997221N03179 1997 64 WP MM YULE 1997-08-28 09:00:00 ET 48.6241 177.668 main 1050 918 _P____________ -1 48.6241 177.668 6 1004 0 0 25 50
1997221N03179 1997 64 WP MM YULE 1997-08-28 12:00:00 ET 49.5000 179.100 1004 tokyo main 911 793 _O____________ -1 49.5000 179.100 6 1004 0 0 0 24 47
1997221N03179 1997 64 EP CP YULE 1997-08-28 15:00:00 ET 50.2894 180.427 main 788 680 _P____________ -1 50.2894 -179.573 6 1003 0 0 22 48
1997221N03179 1997 64 EP CP YULE 1997-08-28 18:00:00 ET 51.0000 181.700 main 674 _O____________ -1 51.0000 181.700 6 1002 0 0 0 21 48

デジタル台風データ・検索

IBTrACS Databaseについて

本データベースは、米国NOAAが公開する1842年以降の世界の熱帯低気圧のベストトラックデータアーカイブInternational Best Track Archive for Climate Stewardship (IBTrACS)を、ウェブで閲覧しやすい形式に変換したものです。

最終更新日:2021-12-03